sensor_id;sensor_type;location;lat;lon;timestamp;temperature;humidity
3069;DHT22;1545;51.728;8.796;2022-10-16T00:01:11;13.80;98.20
3069;DHT22;1545;51.728;8.796;2022-10-16T00:03:39;13.80;98.20
3069;DHT22;1545;51.728;8.796;2022-10-16T00:06:05;13.70;98.30
3069;DHT22;1545;51.728;8.796;2022-10-16T00:08:31;13.70;98.30
3069;DHT22;1545;51.728;8.796;2022-10-16T00:11:02;13.70;98.40
3069;DHT22;1545;51.728;8.796;2022-10-16T00:13:28;13.70;98.60
3069;DHT22;1545;51.728;8.796;2022-10-16T00:15:58;13.70;98.70
3069;DHT22;1545;51.728;8.796;2022-10-16T00:18:25;13.70;98.80
3069;DHT22;1545;51.728;8.796;2022-10-16T00:20:51;13.70;98.80
3069;DHT22;1545;51.728;8.796;2022-10-16T00:23:16;13.70;98.80
3069;DHT22;1545;51.728;8.796;2022-10-16T00:25:42;13.80;98.80
3069;DHT22;1545;51.728;8.796;2022-10-16T00:28:08;13.80;98.80
3069;DHT22;1545;51.728;8.796;2022-10-16T00:30:33;13.80;98.80
3069;DHT22;1545;51.728;8.796;2022-10-16T00:32:59;13.80;98.80
3069;DHT22;1545;51.728;8.796;2022-10-16T00:35:24;13.80;98.80
3069;DHT22;1545;51.728;8.796;2022-10-16T00:37:50;13.80;98.80
3069;DHT22;1545;51.728;8.796;2022-10-16T00:40:16;13.80;98.80
3069;DHT22;1545;51.728;8.796;2022-10-16T00:42:42;13.80;98.80
3069;DHT22;1545;51.728;8.796;2022-10-16T00:45:08;13.80;98.80
3069;DHT22;1545;51.728;8.796;2022-10-16T00:47:38;13.80;98.80
3069;DHT22;1545;51.728;8.796;2022-10-16T00:50:16;13.70;98.80
3069;DHT22;1545;51.728;8.796;2022-10-16T00:52:46;13.70;98.80
3069;DHT22;1545;51.728;8.796;2022-10-16T00:55:14;13.70;98.80
3069;DHT22;1545;51.728;8.796;2022-10-16T00:57:40;13.70;98.80
3069;DHT22;1545;51.728;8.796;2022-10-16T01:00:08;13.70;98.80
3069;DHT22;1545;51.728;8.796;2022-10-16T01:02:35;13.60;98.80
3069;DHT22;1545;51.728;8.796;2022-10-16T01:05:01;13.60;98.80
3069;DHT22;1545;51.728;8.796;2022-10-16T01:07:37;13.60;98.80
3069;DHT22;1545;51.728;8.796;2022-10-16T01:15:35;13.60;98.80
3069;DHT22;1545;51.728;8.796;2022-10-16T01:18:16;13.60;98.80
3069;DHT22;1545;51.728;8.796;2022-10-16T01:21:05;13.60;98.80
3069;DHT22;1545;51.728;8.796;2022-10-16T01:23:48;13.60;98.80
3069;DHT22;1545;51.728;8.796;2022-10-16T01:26:35;13.60;98.80
3069;DHT22;1545;51.728;8.796;2022-10-16T01:29:35;13.50;98.80
3069;DHT22;1545;51.728;8.796;2022-10-16T01:32:15;13.50;98.80
3069;DHT22;1545;51.728;8.796;2022-10-16T01:34:50;13.50;98.80
3069;DHT22;1545;51.728;8.796;2022-10-16T01:37:29;13.50;98.80
3069;DHT22;1545;51.728;8.796;2022-10-16T01:39:58;13.40;98.80
3069;DHT22;1545;51.728;8.796;2022-10-16T01:42:32;13.50;98.80
3069;DHT22;1545;51.728;8.796;2022-10-16T01:44:59;13.40;98.80
3069;DHT22;1545;51.728;8.796;2022-10-16T01:47:27;13.30;98.80
3069;DHT22;1545;51.728;8.796;2022-10-16T01:49:53;13.30;98.80
3069;DHT22;1545;51.728;8.796;2022-10-16T01:52:23;13.30;98.80
3069;DHT22;1545;51.728;8.796;2022-10-16T01:54:53;13.30;98.80
3069;DHT22;1545;51.728;8.796;2022-10-16T01:57:21;13.30;98.80
3069;DHT22;1545;51.728;8.796;2022-10-16T01:59:51;13.30;98.80
3069;DHT22;1545;51.728;8.796;2022-10-16T02:02:20;13.30;98.80
3069;DHT22;1545;51.728;8.796;2022-10-16T02:04:52;13.30;98.80
3069;DHT22;1545;51.728;8.796;2022-10-16T02:07:18;13.40;98.80
3069;DHT22;1545;51.728;8.796;2022-10-16T02:09:44;13.30;98.80
3069;DHT22;1545;51.728;8.796;2022-10-16T02:12:15;13.30;98.80
3069;DHT22;1545;51.728;8.796;2022-10-16T02:14:43;13.30;98.80
3069;DHT22;1545;51.728;8.796;2022-10-16T02:17:15;13.40;98.80
3069;DHT22;1545;51.728;8.796;2022-10-16T02:19:42;13.40;98.80
3069;DHT22;1545;51.728;8.796;2022-10-16T02:22:14;13.50;98.80
3069;DHT22;1545;51.728;8.796;2022-10-16T02:24:56;13.50;98.80
3069;DHT22;1545;51.728;8.796;2022-10-16T02:27:32;13.60;98.80
3069;DHT22;1545;51.728;8.796;2022-10-16T02:30:08;13.60;98.80
3069;DHT22;1545;51.728;8.796;2022-10-16T02:32:37;13.50;98.80
3069;DHT22;1545;51.728;8.796;2022-10-16T02:35:06;13.50;98.80
3069;DHT22;1545;51.728;8.796;2022-10-16T02:37:32;13.50;98.80
3069;DHT22;1545;51.728;8.796;2022-10-16T02:39:58;13.50;98.80
3069;DHT22;1545;51.728;8.796;2022-10-16T02:42:29;13.50;98.70
3069;DHT22;1545;51.728;8.796;2022-10-16T02:44:55;13.50;98.70
3069;DHT22;1545;51.728;8.796;2022-10-16T02:47:20;13.60;98.50
3069;DHT22;1545;51.728;8.796;2022-10-16T02:49:46;13.60;98.60
3069;DHT22;1545;51.728;8.796;2022-10-16T02:52:11;13.70;98.50
3069;DHT22;1545;51.728;8.796;2022-10-16T02:54:37;13.70;98.30
3069;DHT22;1545;51.728;8.796;2022-10-16T02:57:02;13.80;98.10
3069;DHT22;1545;51.728;8.796;2022-10-16T02:59:28;13.80;98.00
3069;DHT22;1545;51.728;8.796;2022-10-16T03:01:53;13.90;97.50
3069;DHT22;1545;51.728;8.796;2022-10-16T03:04:19;13.90;97.00
3069;DHT22;1545;51.728;8.796;2022-10-16T03:06:44;13.90;97.00
3069;DHT22;1545;51.728;8.796;2022-10-16T03:09:10;13.90;96.60
3069;DHT22;1545;51.728;8.796;2022-10-16T03:11:35;13.80;96.50
3069;DHT22;1545;51.728;8.796;2022-10-16T03:14:01;13.80;96.60
3069;DHT22;1545;51.728;8.796;2022-10-16T03:16:26;13.70;96.80
3069;DHT22;1545;51.728;8.796;2022-10-16T03:18:52;13.70;96.90
3069;DHT22;1545;51.728;8.796;2022-10-16T03:21:17;13.70;96.90
3069;DHT22;1545;51.728;8.796;2022-10-16T03:23:43;13.60;97.00
3069;DHT22;1545;51.728;8.796;2022-10-16T03:26:08;13.50;97.00
3069;DHT22;1545;51.728;8.796;2022-10-16T03:28:34;13.50;97.20
3069;DHT22;1545;51.728;8.796;2022-10-16T03:30:59;13.50;97.30
3069;DHT22;1545;51.728;8.796;2022-10-16T03:33:25;13.40;97.80
3069;DHT22;1545;51.728;8.796;2022-10-16T03:35:52;13.40;97.70
3069;DHT22;1545;51.728;8.796;2022-10-16T03:38:18;13.40;97.80
3069;DHT22;1545;51.728;8.796;2022-10-16T03:40:44;13.40;97.80
3069;DHT22;1545;51.728;8.796;2022-10-16T03:43:09;13.40;98.10
3069;DHT22;1545;51.728;8.796;2022-10-16T03:45:35;13.40;98.30
3069;DHT22;1545;51.728;8.796;2022-10-16T03:48:00;13.50;98.20
3069;DHT22;1545;51.728;8.796;2022-10-16T03:50:27;13.50;98.30
3069;DHT22;1545;51.728;8.796;2022-10-16T03:52:53;13.50;98.20
3069;DHT22;1545;51.728;8.796;2022-10-16T03:55:18;13.60;97.80
3069;DHT22;1545;51.728;8.796;2022-10-16T03:57:44;13.60;97.50
3069;DHT22;1545;51.728;8.796;2022-10-16T04:00:10;13.70;97.40
3069;DHT22;1545;51.728;8.796;2022-10-16T04:02:36;13.70;97.40
3069;DHT22;1545;51.728;8.796;2022-10-16T04:05:01;13.80;97.00
3069;DHT22;1545;51.728;8.796;2022-10-16T04:07:27;13.90;96.70
3069;DHT22;1545;51.728;8.796;2022-10-16T04:09:53;13.90;96.30
3069;DHT22;1545;51.728;8.796;2022-10-16T04:12:19;14.00;96.00
3069;DHT22;1545;51.728;8.796;2022-10-16T04:14:44;14.00;95.60
3069;DHT22;1545;51.728;8.796;2022-10-16T04:17:10;14.10;95.20
3069;DHT22;1545;51.728;8.796;2022-10-16T04:19:36;14.10;94.90
3069;DHT22;1545;51.728;8.796;2022-10-16T04:22:02;14.10;94.80
3069;DHT22;1545;51.728;8.796;2022-10-16T04:24:28;14.10;94.70
3069;DHT22;1545;51.728;8.796;2022-10-16T04:26:53;14.00;94.70
3069;DHT22;1545;51.728;8.796;2022-10-16T04:29:19;14.00;94.60
3069;DHT22;1545;51.728;8.796;2022-10-16T04:31:44;14.00;94.70
3069;DHT22;1545;51.728;8.796;2022-10-16T04:34:10;14.00;94.60
3069;DHT22;1545;51.728;8.796;2022-10-16T04:36:35;14.00;94.40
3069;DHT22;1545;51.728;8.796;2022-10-16T04:39:01;14.00;94.20
3069;DHT22;1545;51.728;8.796;2022-10-16T04:41:26;14.00;94.00
3069;DHT22;1545;51.728;8.796;2022-10-16T04:43:52;14.00;94.10
3069;DHT22;1545;51.728;8.796;2022-10-16T04:46:17;14.00;94.20
3069;DHT22;1545;51.728;8.796;2022-10-16T04:48:43;14.00;94.20
3069;DHT22;1545;51.728;8.796;2022-10-16T04:51:08;14.00;94.20
3069;DHT22;1545;51.728;8.796;2022-10-16T04:53:34;14.10;94.00
3069;DHT22;1545;51.728;8.796;2022-10-16T04:55:59;14.10;93.40
3069;DHT22;1545;51.728;8.796;2022-10-16T04:58:25;14.10;93.40
3069;DHT22;1545;51.728;8.796;2022-10-16T05:00:51;14.10;93.60
3069;DHT22;1545;51.728;8.796;2022-10-16T05:03:16;14.10;93.60
3069;DHT22;1545;51.728;8.796;2022-10-16T05:05:43;14.10;93.80
3069;DHT22;1545;51.728;8.796;2022-10-16T05:08:10;14.10;93.60
3069;DHT22;1545;51.728;8.796;2022-10-16T05:10:35;14.20;93.60
3069;DHT22;1545;51.728;8.796;2022-10-16T05:13:01;14.20;93.40
3069;DHT22;1545;51.728;8.796;2022-10-16T05:15:26;14.20;93.20
3069;DHT22;1545;51.728;8.796;2022-10-16T05:17:53;14.30;93.10
3069;DHT22;1545;51.728;8.796;2022-10-16T05:20:19;14.30;93.00
3069;DHT22;1545;51.728;8.796;2022-10-16T05:22:44;14.30;92.90
3069;DHT22;1545;51.728;8.796;2022-10-16T05:25:10;14.30;92.70
3069;DHT22;1545;51.728;8.796;2022-10-16T05:27:35;14.20;92.80
3069;DHT22;1545;51.728;8.796;2022-10-16T05:30:01;14.20;92.90
3069;DHT22;1545;51.728;8.796;2022-10-16T05:32:27;14.20;92.80
3069;DHT22;1545;51.728;8.796;2022-10-16T05:34:52;14.10;93.00
3069;DHT22;1545;51.728;8.796;2022-10-16T05:37:18;14.00;93.20
3069;DHT22;1545;51.728;8.796;2022-10-16T05:39:43;14.00;93.40
3069;DHT22;1545;51.728;8.796;2022-10-16T05:42:09;14.00;93.40
3069;DHT22;1545;51.728;8.796;2022-10-16T05:44:34;14.10;93.20
3069;DHT22;1545;51.728;8.796;2022-10-16T05:47:00;14.10;92.80
3069;DHT22;1545;51.728;8.796;2022-10-16T05:49:25;14.10;92.70
3069;DHT22;1545;51.728;8.796;2022-10-16T05:51:51;14.10;92.50
3069;DHT22;1545;51.728;8.796;2022-10-16T05:54:16;14.10;92.50
3069;DHT22;1545;51.728;8.796;2022-10-16T05:56:42;14.10;92.30
3069;DHT22;1545;51.728;8.796;2022-10-16T05:59:08;14.00;92.50
3069;DHT22;1545;51.728;8.796;2022-10-16T06:01:33;14.00;92.70
3069;DHT22;1545;51.728;8.796;2022-10-16T06:04:00;13.90;93.00
3069;DHT22;1545;51.728;8.796;2022-10-16T06:06:28;14.00;92.90
3069;DHT22;1545;51.728;8.796;2022-10-16T06:08:56;14.00;92.80
3069;DHT22;1545;51.728;8.796;2022-10-16T06:11:27;14.00;92.70
3069;DHT22;1545;51.728;8.796;2022-10-16T06:13:55;14.00;92.50
3069;DHT22;1545;51.728;8.796;2022-10-16T06:16:22;14.10;92.50
3069;DHT22;1545;51.728;8.796;2022-10-16T06:18:50;14.10;92.30
3069;DHT22;1545;51.728;8.796;2022-10-16T06:21:21;14.20;92.20
3069;DHT22;1545;51.728;8.796;2022-10-16T06:23:47;14.20;91.90
3069;DHT22;1545;51.728;8.796;2022-10-16T06:26:15;14.30;91.80
3069;DHT22;1545;51.728;8.796;2022-10-16T06:28:41;14.40;91.30
3069;DHT22;1545;51.728;8.796;2022-10-16T06:31:09;14.40;91.30
3069;DHT22;1545;51.728;8.796;2022-10-16T06:33:35;14.50;90.80
3069;DHT22;1545;51.728;8.796;2022-10-16T06:36:12;14.50;90.60
3069;DHT22;1545;51.728;8.796;2022-10-16T06:38:38;14.60;90.50
3069;DHT22;1545;51.728;8.796;2022-10-16T06:41:04;14.80;89.80
3069;DHT22;1545;51.728;8.796;2022-10-16T06:43:30;14.90;89.50
3069;DHT22;1545;51.728;8.796;2022-10-16T06:46:03;15.00;89.20
3069;DHT22;1545;51.728;8.796;2022-10-16T06:48:29;15.10;88.90
3069;DHT22;1545;51.728;8.796;2022-10-16T06:53:22;15.30;87.90
3069;DHT22;1545;51.728;8.796;2022-10-16T06:55:47;15.40;87.50
3069;DHT22;1545;51.728;8.796;2022-10-16T06:58:13;15.40;87.30
3069;DHT22;1545;51.728;8.796;2022-10-16T07:00:38;15.50;87.20
3069;DHT22;1545;51.728;8.796;2022-10-16T07:03:04;15.60;86.80
3069;DHT22;1545;51.728;8.796;2022-10-16T07:05:29;15.60;86.70
3069;DHT22;1545;51.728;8.796;2022-10-16T07:07:55;15.60;86.60
3069;DHT22;1545;51.728;8.796;2022-10-16T07:10:20;15.60;86.80
3069;DHT22;1545;51.728;8.796;2022-10-16T07:12:49;15.70;86.90
3069;DHT22;1545;51.728;8.796;2022-10-16T07:15:15;15.80;86.60
3069;DHT22;1545;51.728;8.796;2022-10-16T07:17:40;15.90;86.40
3069;DHT22;1545;51.728;8.796;2022-10-16T07:20:06;15.90;86.30
3069;DHT22;1545;51.728;8.796;2022-10-16T07:22:32;16.00;86.30
3069;DHT22;1545;51.728;8.796;2022-10-16T07:24:58;16.20;86.00
3069;DHT22;1545;51.728;8.796;2022-10-16T07:27:23;16.20;85.70
3069;DHT22;1545;51.728;8.796;2022-10-16T07:29:49;16.30;85.60
3069;DHT22;1545;51.728;8.796;2022-10-16T07:32:15;16.30;85.50
3069;DHT22;1545;51.728;8.796;2022-10-16T07:34:40;16.30;85.30
3069;DHT22;1545;51.728;8.796;2022-10-16T07:37:07;16.40;85.40
3069;DHT22;1545;51.728;8.796;2022-10-16T07:39:32;16.40;85.20
3069;DHT22;1545;51.728;8.796;2022-10-16T07:41:58;16.50;85.10
3069;DHT22;1545;51.728;8.796;2022-10-16T07:44:24;16.60;85.20
3069;DHT22;1545;51.728;8.796;2022-10-16T07:46:49;16.70;85.00
3069;DHT22;1545;51.728;8.796;2022-10-16T07:49:15;16.70;84.90
3069;DHT22;1545;51.728;8.796;2022-10-16T07:51:40;16.90;84.50
3069;DHT22;1545;51.728;8.796;2022-10-16T07:54:08;16.90;84.20
3069;DHT22;1545;51.728;8.796;2022-10-16T07:56:34;16.90;84.30
3069;DHT22;1545;51.728;8.796;2022-10-16T07:58:59;16.80;84.40
3069;DHT22;1545;51.728;8.796;2022-10-16T08:01:25;16.80;84.40
3069;DHT22;1545;51.728;8.796;2022-10-16T08:03:51;16.80;84.70
3069;DHT22;1545;51.728;8.796;2022-10-16T08:06:18;16.90;84.60
3069;DHT22;1545;51.728;8.796;2022-10-16T08:08:44;17.00;84.60
3069;DHT22;1545;51.728;8.796;2022-10-16T08:11:09;17.30;84.10
3069;DHT22;1545;51.728;8.796;2022-10-16T08:13:35;17.50;83.10
3069;DHT22;1545;51.728;8.796;2022-10-16T08:16:01;17.70;82.60
3069;DHT22;1545;51.728;8.796;2022-10-16T08:18:27;17.80;82.60
3069;DHT22;1545;51.728;8.796;2022-10-16T08:20:57;17.80;82.40
3069;DHT22;1545;51.728;8.796;2022-10-16T08:23:23;17.80;82.00
3069;DHT22;1545;51.728;8.796;2022-10-16T08:25:51;17.80;82.00
3069;DHT22;1545;51.728;8.796;2022-10-16T08:28:17;17.70;82.20
3069;DHT22;1545;51.728;8.796;2022-10-16T08:30:42;17.70;82.60
3069;DHT22;1545;51.728;8.796;2022-10-16T08:33:08;17.50;82.90
3069;DHT22;1545;51.728;8.796;2022-10-16T08:35:33;17.40;83.20
3069;DHT22;1545;51.728;8.796;2022-10-16T08:37:59;17.30;83.60
3069;DHT22;1545;51.728;8.796;2022-10-16T08:40:29;17.20;83.80
3069;DHT22;1545;51.728;8.796;2022-10-16T08:46:04;17.00;83.80
3069;DHT22;1545;51.728;8.796;2022-10-16T08:48:43;16.90;84.30
3069;DHT22;1545;51.728;8.796;2022-10-16T08:51:19;16.90;84.90
3069;DHT22;1545;51.728;8.796;2022-10-16T08:56:38;16.90;84.80
3069;DHT22;1545;51.728;8.796;2022-10-16T08:59:06;17.00;84.70
3069;DHT22;1545;51.728;8.796;2022-10-16T09:01:41;17.20;84.70
3069;DHT22;1545;51.728;8.796;2022-10-16T09:07:18;17.70;83.00
3069;DHT22;1545;51.728;8.796;2022-10-16T09:09:56;18.10;82.00
3069;DHT22;1545;51.728;8.796;2022-10-16T09:12:39;18.40;81.20
3069;DHT22;1545;51.728;8.796;2022-10-16T09:18:24;19.00;79.40
3069;DHT22;1545;51.728;8.796;2022-10-16T09:20:50;19.40;78.60
3069;DHT22;1545;51.728;8.796;2022-10-16T09:23:28;19.50;76.40
3069;DHT22;1545;51.728;8.796;2022-10-16T09:25:55;19.10;77.50
3069;DHT22;1545;51.728;8.796;2022-10-16T09:28:21;18.90;77.90
3069;DHT22;1545;51.728;8.796;2022-10-16T09:30:47;18.80;78.50
3069;DHT22;1545;51.728;8.796;2022-10-16T09:33:18;18.80;78.30
3069;DHT22;1545;51.728;8.796;2022-10-16T09:35:49;18.70;77.30
3069;DHT22;1545;51.728;8.796;2022-10-16T09:38:29;18.60;77.00
3069;DHT22;1545;51.728;8.796;2022-10-16T09:41:11;18.60;77.80
3069;DHT22;1545;51.728;8.796;2022-10-16T09:46:35;18.50;76.90
3069;DHT22;1545;51.728;8.796;2022-10-16T09:49:04;18.20;77.20
3069;DHT22;1545;51.728;8.796;2022-10-16T09:51:36;17.90;77.70
3069;DHT22;1545;51.728;8.796;2022-10-16T09:54:17;17.80;77.90
3069;DHT22;1545;51.728;8.796;2022-10-16T09:56:42;17.70;78.20
3069;DHT22;1545;51.728;8.796;2022-10-16T10:01:45;17.50;78.10
3069;DHT22;1545;51.728;8.796;2022-10-16T10:04:12;17.60;77.80
3069;DHT22;1545;51.728;8.796;2022-10-16T10:09:28;17.50;78.70
3069;DHT22;1545;51.728;8.796;2022-10-16T10:11:57;17.50;78.50
3069;DHT22;1545;51.728;8.796;2022-10-16T10:14:26;17.50;77.80
3069;DHT22;1545;51.728;8.796;2022-10-16T10:17:08;17.50;77.30
3069;DHT22;1545;51.728;8.796;2022-10-16T10:19:59;17.50;78.20
3069;DHT22;1545;51.728;8.796;2022-10-16T10:22:42;17.50;78.40
3069;DHT22;1545;51.728;8.796;2022-10-16T10:35:57;17.20;78.60
3069;DHT22;1545;51.728;8.796;2022-10-16T10:55:17;17.90;76.60
3069;DHT22;1545;51.728;8.796;2022-10-16T11:03:46;17.90;75.80
3069;DHT22;1545;51.728;8.796;2022-10-16T11:09:18;17.80;76.80
3069;DHT22;1545;51.728;8.796;2022-10-16T11:11:58;17.90;76.70
3069;DHT22;1545;51.728;8.796;2022-10-16T11:14:34;18.10;76.30
3069;DHT22;1545;51.728;8.796;2022-10-16T11:17:25;18.20;76.00
3069;DHT22;1545;51.728;8.796;2022-10-16T11:22:40;18.40;75.30
3069;DHT22;1545;51.728;8.796;2022-10-16T11:25:16;18.40;75.60
3069;DHT22;1545;51.728;8.796;2022-10-16T11:28:01;18.40;75.60
3069;DHT22;1545;51.728;8.796;2022-10-16T11:30:30;18.50;75.80
3069;DHT22;1545;51.728;8.796;2022-10-16T11:33:00;18.60;75.80
3069;DHT22;1545;51.728;8.796;2022-10-16T11:36:08;18.70;75.40
3069;DHT22;1545;51.728;8.796;2022-10-16T11:42:35;18.90;75.70
3069;DHT22;1545;51.728;8.796;2022-10-16T11:53:38;19.70;73.00
3069;DHT22;1545;51.728;8.796;2022-10-16T11:55:45;19.80;72.70
3069;DHT22;1545;51.728;8.796;2022-10-16T11:58:20;19.80;71.20
3069;DHT22;1545;51.728;8.796;2022-10-16T12:04:05;19.50;72.20
3069;DHT22;1545;51.728;8.796;2022-10-16T12:06:46;19.40;72.40
3069;DHT22;1545;51.728;8.796;2022-10-16T12:09:31;19.30;72.90
3069;DHT22;1545;51.728;8.796;2022-10-16T12:11:57;19.30;73.40
3069;DHT22;1545;51.728;8.796;2022-10-16T12:17:02;19.20;74.40
3069;DHT22;1545;51.728;8.796;2022-10-16T12:19:31;19.20;74.40
3069;DHT22;1545;51.728;8.796;2022-10-16T12:21:59;19.30;74.00
3069;DHT22;1545;51.728;8.796;2022-10-16T12:24:39;19.40;73.10
3069;DHT22;1545;51.728;8.796;2022-10-16T12:27:31;19.40;73.40
3069;DHT22;1545;51.728;8.796;2022-10-16T12:30:02;19.30;73.50
3069;DHT22;1545;51.728;8.796;2022-10-16T12:32:35;19.30;73.40
3069;DHT22;1545;51.728;8.796;2022-10-16T12:35:03;19.30;73.20
3069;DHT22;1545;51.728;8.796;2022-10-16T12:37:34;19.20;73.80
3069;DHT22;1545;51.728;8.796;2022-10-16T12:40:22;19.20;73.80
3069;DHT22;1545;51.728;8.796;2022-10-16T12:42:49;19.00;73.50
3069;DHT22;1545;51.728;8.796;2022-10-16T12:45:33;19.00;74.20
3069;DHT22;1545;51.728;8.796;2022-10-16T12:48:04;19.00;74.80
3069;DHT22;1545;51.728;8.796;2022-10-16T12:50:43;19.00;75.00
3069;DHT22;1545;51.728;8.796;2022-10-16T12:53:21;19.10;74.80
3069;DHT22;1545;51.728;8.796;2022-10-16T12:56:15;19.10;74.60
3069;DHT22;1545;51.728;8.796;2022-10-16T13:01:57;19.10;74.40
3069;DHT22;1545;51.728;8.796;2022-10-16T13:04:31;19.10;75.00
3069;DHT22;1545;51.728;8.796;2022-10-16T13:10:12;19.20;75.60
3069;DHT22;1545;51.728;8.796;2022-10-16T13:15:20;19.20;73.70
3069;DHT22;1545;51.728;8.796;2022-10-16T13:18:16;19.10;73.60
3069;DHT22;1545;51.728;8.796;2022-10-16T13:21:21;19.20;74.00
3069;DHT22;1545;51.728;8.796;2022-10-16T13:29:04;19.10;74.10
3069;DHT22;1545;51.728;8.796;2022-10-16T13:31:30;19.10;74.00
3069;DHT22;1545;51.728;8.796;2022-10-16T13:33:59;19.10;73.80
3069;DHT22;1545;51.728;8.796;2022-10-16T13:36:42;19.20;73.70
3069;DHT22;1545;51.728;8.796;2022-10-16T13:39:14;19.30;73.90
3069;DHT22;1545;51.728;8.796;2022-10-16T13:41:40;19.40;74.20
3069;DHT22;1545;51.728;8.796;2022-10-16T13:44:14;19.50;74.30
3069;DHT22;1545;51.728;8.796;2022-10-16T13:46:40;19.50;74.70
3069;DHT22;1545;51.728;8.796;2022-10-16T13:49:16;19.40;74.50
3069;DHT22;1545;51.728;8.796;2022-10-16T13:51:54;19.30;74.60
3069;DHT22;1545;51.728;8.796;2022-10-16T13:54:20;19.30;75.10
3069;DHT22;1545;51.728;8.796;2022-10-16T13:56:45;19.30;75.00
3069;DHT22;1545;51.728;8.796;2022-10-16T13:59:26;19.30;74.90
3069;DHT22;1545;51.728;8.796;2022-10-16T14:01:55;19.30;74.80
3069;DHT22;1545;51.728;8.796;2022-10-16T14:04:22;19.30;74.90
3069;DHT22;1545;51.728;8.796;2022-10-16T14:06:50;19.30;74.70
3069;DHT22;1545;51.728;8.796;2022-10-16T14:11:54;19.30;74.50
3069;DHT22;1545;51.728;8.796;2022-10-16T14:14:21;19.30;74.50
3069;DHT22;1545;51.728;8.796;2022-10-16T14:16:48;19.30;75.00
3069;DHT22;1545;51.728;8.796;2022-10-16T14:19:25;19.20;75.10
3069;DHT22;1545;51.728;8.796;2022-10-16T14:21:51;19.20;75.30
3069;DHT22;1545;51.728;8.796;2022-10-16T14:24:31;19.20;75.30
3069;DHT22;1545;51.728;8.796;2022-10-16T14:26:57;19.30;74.70
3069;DHT22;1545;51.728;8.796;2022-10-16T14:29:25;19.30;75.00
3069;DHT22;1545;51.728;8.796;2022-10-16T14:31:59;19.30;75.20
3069;DHT22;1545;51.728;8.796;2022-10-16T14:34:36;19.30;74.80
3069;DHT22;1545;51.728;8.796;2022-10-16T14:37:29;19.30;75.20
3069;DHT22;1545;51.728;8.796;2022-10-16T14:39:56;19.30;75.30
3069;DHT22;1545;51.728;8.796;2022-10-16T14:42:24;19.30;75.30
3069;DHT22;1545;51.728;8.796;2022-10-16T14:44:51;19.10;75.60
3069;DHT22;1545;51.728;8.796;2022-10-16T14:47:23;19.10;75.70
3069;DHT22;1545;51.728;8.796;2022-10-16T14:49:53;19.10;75.90
3069;DHT22;1545;51.728;8.796;2022-10-16T14:52:24;19.10;75.60
3069;DHT22;1545;51.728;8.796;2022-10-16T14:54:50;19.20;75.40
3069;DHT22;1545;51.728;8.796;2022-10-16T14:57:18;19.20;75.70
3069;DHT22;1545;51.728;8.796;2022-10-16T14:59:44;19.20;74.40
3069;DHT22;1545;51.728;8.796;2022-10-16T15:02:27;19.20;74.60
3069;DHT22;1545;51.728;8.796;2022-10-16T15:04:53;19.20;74.90
3069;DHT22;1545;51.728;8.796;2022-10-16T15:07:19;18.90;75.40
3069;DHT22;1545;51.728;8.796;2022-10-16T15:09:44;18.80;75.20
3069;DHT22;1545;51.728;8.796;2022-10-16T15:12:10;18.60;75.60
3069;DHT22;1545;51.728;8.796;2022-10-16T15:14:35;18.50;76.00
3069;DHT22;1545;51.728;8.796;2022-10-16T15:17:02;18.40;76.60
3069;DHT22;1545;51.728;8.796;2022-10-16T15:19:27;18.20;77.30
3069;DHT22;1545;51.728;8.796;2022-10-16T15:21:53;18.10;78.00
3069;DHT22;1545;51.728;8.796;2022-10-16T15:24:18;18.00;78.50
3069;DHT22;1545;51.728;8.796;2022-10-16T15:26:44;17.90;78.60
3069;DHT22;1545;51.728;8.796;2022-10-16T15:29:12;18.00;78.60
3069;DHT22;1545;51.728;8.796;2022-10-16T15:31:37;17.90;78.70
3069;DHT22;1545;51.728;8.796;2022-10-16T15:34:03;18.00;78.60
3069;DHT22;1545;51.728;8.796;2022-10-16T15:36:36;18.10;78.30
3069;DHT22;1545;51.728;8.796;2022-10-16T15:39:16;18.00;78.60
3069;DHT22;1545;51.728;8.796;2022-10-16T15:41:44;17.90;79.10
3069;DHT22;1545;51.728;8.796;2022-10-16T15:44:09;17.70;80.00
3069;DHT22;1545;51.728;8.796;2022-10-16T15:46:35;17.60;80.40
3069;DHT22;1545;51.728;8.796;2022-10-16T15:49:02;17.40;80.70
3069;DHT22;1545;51.728;8.796;2022-10-16T15:51:28;17.30;80.90
3069;DHT22;1545;51.728;8.796;2022-10-16T15:53:56;17.30;81.20
3069;DHT22;1545;51.728;8.796;2022-10-16T15:56:22;17.30;81.20
3069;DHT22;1545;51.728;8.796;2022-10-16T15:58:51;17.20;81.40
3069;DHT22;1545;51.728;8.796;2022-10-16T16:01:17;17.10;81.70
3069;DHT22;1545;51.728;8.796;2022-10-16T16:03:42;17.00;81.90
3069;DHT22;1545;51.728;8.796;2022-10-16T16:06:11;16.80;82.40
3069;DHT22;1545;51.728;8.796;2022-10-16T16:08:37;16.60;83.10
3069;DHT22;1545;51.728;8.796;2022-10-16T16:11:06;16.50;84.00
3069;DHT22;1545;51.728;8.796;2022-10-16T16:13:32;16.40;84.40
3069;DHT22;1545;51.728;8.796;2022-10-16T16:15:57;16.30;85.20
3069;DHT22;1545;51.728;8.796;2022-10-16T16:18:23;16.10;86.00
3069;DHT22;1545;51.728;8.796;2022-10-16T16:20:50;15.90;85.80
3069;DHT22;1545;51.728;8.796;2022-10-16T16:23:15;15.90;86.10
3069;DHT22;1545;51.728;8.796;2022-10-16T16:25:41;15.70;86.90
3069;DHT22;1545;51.728;8.796;2022-10-16T16:28:07;15.60;87.90
3069;DHT22;1545;51.728;8.796;2022-10-16T16:30:35;15.40;89.00
3069;DHT22;1545;51.728;8.796;2022-10-16T16:33:01;15.30;89.20
3069;DHT22;1545;51.728;8.796;2022-10-16T16:35:26;15.10;89.80
3069;DHT22;1545;51.728;8.796;2022-10-16T16:37:52;15.10;90.00
3069;DHT22;1545;51.728;8.796;2022-10-16T16:40:18;15.00;90.40
3069;DHT22;1545;51.728;8.796;2022-10-16T16:42:43;14.90;91.30
3069;DHT22;1545;51.728;8.796;2022-10-16T16:45:09;14.90;91.60
3069;DHT22;1545;51.728;8.796;2022-10-16T16:47:34;14.90;91.80
3069;DHT22;1545;51.728;8.796;2022-10-16T16:50:00;14.90;91.60
3069;DHT22;1545;51.728;8.796;2022-10-16T16:52:30;14.90;92.10
3069;DHT22;1545;51.728;8.796;2022-10-16T16:54:55;14.80;92.10
3069;DHT22;1545;51.728;8.796;2022-10-16T16:57:21;14.80;92.20
3069;DHT22;1545;51.728;8.796;2022-10-16T16:59:46;14.60;93.00
3069;DHT22;1545;51.728;8.796;2022-10-16T17:02:12;14.60;93.20
3069;DHT22;1545;51.728;8.796;2022-10-16T17:04:37;14.60;93.30
3069;DHT22;1545;51.728;8.796;2022-10-16T17:07:03;14.80;92.60
3069;DHT22;1545;51.728;8.796;2022-10-16T17:09:28;14.80;92.70
3069;DHT22;1545;51.728;8.796;2022-10-16T17:11:56;14.90;92.40
3069;DHT22;1545;51.728;8.796;2022-10-16T17:14:22;14.90;92.10
3069;DHT22;1545;51.728;8.796;2022-10-16T17:16:47;15.00;91.30
3069;DHT22;1545;51.728;8.796;2022-10-16T17:19:16;15.00;91.40
3069;DHT22;1545;51.728;8.796;2022-10-16T17:21:42;15.00;91.80
3069;DHT22;1545;51.728;8.796;2022-10-16T17:24:08;15.00;91.60
3069;DHT22;1545;51.728;8.796;2022-10-16T17:26:34;15.10;91.10
3069;DHT22;1545;51.728;8.796;2022-10-16T17:29:03;15.20;90.60
3069;DHT22;1545;51.728;8.796;2022-10-16T17:31:34;15.20;90.60
3069;DHT22;1545;51.728;8.796;2022-10-16T17:34:03;15.30;90.60
3069;DHT22;1545;51.728;8.796;2022-10-16T17:36:31;15.30;90.70
3069;DHT22;1545;51.728;8.796;2022-10-16T17:39:03;15.30;91.10
3069;DHT22;1545;51.728;8.796;2022-10-16T17:41:34;15.30;91.60
3069;DHT22;1545;51.728;8.796;2022-10-16T17:44:00;15.30;91.50
3069;DHT22;1545;51.728;8.796;2022-10-16T17:46:26;15.30;91.20
3069;DHT22;1545;51.728;8.796;2022-10-16T17:48:53;15.30;91.40
3069;DHT22;1545;51.728;8.796;2022-10-16T17:51:21;15.30;91.50
3069;DHT22;1545;51.728;8.796;2022-10-16T17:53:51;15.40;90.20
3069;DHT22;1545;51.728;8.796;2022-10-16T17:56:18;15.40;89.30